createdAt,value
2023-02-26T00:00:15.312Z,101119.31
2023-02-26T00:02:46.084Z,101117.66
2023-02-26T00:05:14.034Z,101119.56
2023-02-26T00:07:42.042Z,101124.13
2023-02-26T00:10:11.880Z,101130.41
2023-02-26T00:12:40.276Z,101141.28
2023-02-26T00:15:13.277Z,101142.91
2023-02-26T00:17:45.832Z,101132.06
2023-02-26T00:20:16.869Z,101133.94
2023-02-26T00:22:45.367Z,101142.31
2023-02-26T00:25:13.590Z,101144.78
2023-02-26T00:27:42.286Z,101153.16
2023-02-26T00:30:11.816Z,101155.88
2023-02-26T00:32:40.716Z,101165.91
2023-02-26T00:35:12.718Z,101163.19
2023-02-26T00:37:51.922Z,101165.06
2023-02-26T00:40:22.570Z,101172.16
2023-02-26T00:42:51.049Z,101170.50
2023-02-26T00:45:19.740Z,101173.19
2023-02-26T00:47:50.600Z,101164.19
2023-02-26T00:50:21.445Z,101183.22
2023-02-26T00:52:58.449Z,101176.94
2023-02-26T00:55:28.370Z,101181.53
2023-02-26T00:57:56.470Z,101177.97
2023-02-26T01:00:24.748Z,101185.09
2023-02-26T01:02:53.182Z,101182.38
2023-02-26T01:05:23.264Z,101185.94
2023-02-26T01:07:55.828Z,101188.84
2023-02-26T01:10:24.848Z,101195.13
2023-02-26T01:12:53.373Z,101198.66
2023-02-26T01:15:22.049Z,101195.94
2023-02-26T01:17:52.961Z,101174.59
2023-02-26T01:20:23.431Z,101201.38
2023-02-26T01:22:54.100Z,101204.09
2023-02-26T01:25:25.102Z,101199.69
2023-02-26T01:27:53.750Z,101191.56
2023-02-26T01:30:22.799Z,101179.84
2023-02-26T01:32:53.395Z,101171.50
2023-02-26T01:35:36.841Z,101188.84
2023-02-26T01:38:05.694Z,101197.00
2023-02-26T01:40:55.222Z,101195.94
2023-02-26T01:43:26.795Z,101200.75
2023-02-26T01:45:58.166Z,101207.00
2023-02-26T01:48:34.071Z,101197.22
2023-02-26T01:51:03.486Z,101207.84
2023-02-26T01:53:31.482Z,101201.56
2023-02-26T01:56:01.299Z,101200.97
2023-02-26T01:58:32.220Z,101207.00
2023-02-26T02:01:00.142Z,101202.41
2023-02-26T02:03:28.280Z,101198.88
2023-02-26T02:05:57.805Z,101200.31
2023-02-26T02:08:27.421Z,101206.16
2023-02-26T02:10:55.430Z,101220.59
2023-02-26T02:13:31.988Z,101218.94
2023-02-26T02:16:04.936Z,101220.81
2023-02-26T02:18:37.162Z,101221.66
2023-02-26T02:21:38.430Z,101223.53
2023-02-26T02:24:10.023Z,101228.94
2023-02-26T02:26:46.730Z,101228.94
2023-02-26T02:29:44.647Z,101236.03
2023-02-26T02:32:15.198Z,101224.94
2023-02-26T02:34:46.012Z,101242.53
2023-02-26T02:37:17.643Z,101250.66
2023-02-26T02:39:47.814Z,101242.72
2023-02-26T02:42:22.627Z,101220.47
2023-02-26T02:44:52.372Z,101221.31
2023-02-26T02:47:21.732Z,101272.78
2023-02-26T02:49:51.500Z,101263.41
2023-02-26T02:52:22.442Z,101259.00
2023-02-26T02:54:52.441Z,101268.00
2023-02-26T02:57:22.458Z,101256.91
2023-02-26T02:59:52.786Z,101275.09
2023-02-26T03:02:24.114Z,101250.16
2023-02-26T03:04:52.040Z,101280.53
2023-02-26T03:07:19.950Z,101265.28
2023-02-26T03:09:48.416Z,101274.25
2023-02-26T03:12:16.420Z,101270.69
2023-02-26T03:14:44.431Z,101271.53
2023-02-26T03:17:24.744Z,101258.78
2023-02-26T03:20:01.334Z,101276.97
2023-02-26T03:22:32.840Z,101280.53
2023-02-26T03:25:03.087Z,101296.81
2023-02-26T03:27:32.772Z,101274.66
2023-02-26T03:30:02.976Z,101288.88
2023-02-26T03:32:33.823Z,101283.41
2023-02-26T03:35:04.153Z,101297.00
2023-02-26T03:37:34.161Z,101303.28
2023-02-26T03:40:05.730Z,101301.56
2023-02-26T03:42:35.851Z,101319.56
2023-02-26T03:45:06.160Z,101321.44
2023-02-26T03:47:38.879Z,101320.59
2023-02-26T03:50:08.784Z,101327.72
2023-02-26T03:52:38.958Z,101327.72
2023-02-26T03:55:09.260Z,101328.75
2023-02-26T03:57:37.175Z,101335.00
2023-02-26T04:00:06.103Z,101330.63
2023-02-26T04:02:36.266Z,101335.00
2023-02-26T04:05:07.991Z,101335.84
2023-02-26T04:07:35.908Z,101330.44
2023-02-26T04:10:04.797Z,101342.31
2023-02-26T04:12:32.676Z,101330.63
2023-02-26T04:15:00.544Z,101332.50
2023-02-26T04:17:30.355Z,101340.25
2023-02-26T04:20:00.126Z,101342.97
2023-02-26T04:22:28.009Z,101336.69
2023-02-26T04:24:55.911Z,101345.88
2023-02-26T04:27:23.873Z,101345.03
2023-02-26T04:29:52.028Z,101339.59
2023-02-26T04:32:20.029Z,101354.84
2023-02-26T04:34:48.020Z,101358.59
2023-02-26T04:37:17.284Z,101357.56
2023-02-26T04:39:45.450Z,101367.41
2023-02-26T04:42:13.421Z,101373.88
2023-02-26T04:44:41.296Z,101375.75
2023-02-26T04:47:09.181Z,101377.41
2023-02-26T04:49:37.443Z,101382.00
2023-02-26T04:52:05.363Z,101381.81
2023-02-26T04:54:34.626Z,101381.81
2023-02-26T04:57:02.550Z,101383.69
2023-02-26T04:59:30.700Z,101392.88
2023-02-26T05:01:58.670Z,101395.59
2023-02-26T05:04:26.923Z,101387.44
2023-02-26T05:06:55.855Z,101400.81
2023-02-26T05:09:24.033Z,101399.13
2023-02-26T05:11:53.366Z,101408.13
2023-02-26T05:14:21.402Z,101411.88
2023-02-26T05:16:49.304Z,101416.47
2023-02-26T05:19:17.817Z,101412.91
2023-02-26T05:21:45.712Z,101411.69
2023-02-26T05:24:13.557Z,101423.34
2023-02-26T05:26:41.492Z,101424.41
2023-02-26T05:29:10.821Z,101433.19
2023-02-26T05:31:38.748Z,101430.69
2023-02-26T05:34:06.676Z,101423.34
2023-02-26T05:36:34.583Z,101434.22
2023-02-26T05:39:02.748Z,101432.56
2023-02-26T05:41:30.666Z,101423.75
2023-02-26T05:43:59.106Z,101444.25
2023-02-26T05:46:28.815Z,101448.63
2023-02-26T05:48:57.264Z,101455.13
2023-02-26T05:51:25.137Z,101453.22
2023-02-26T05:53:53.019Z,101455.13
2023-02-26T05:56:21.018Z,101453.22
2023-02-26T05:58:49.208Z,101463.03
2023-02-26T06:01:17.100Z,101465.97
2023-02-26T06:03:46.420Z,101462.84
2023-02-26T06:06:16.194Z,101468.69
2023-02-26T06:08:44.384Z,101469.50
2023-02-26T06:11:12.688Z,101474.94
2023-02-26T06:13:40.629Z,101475.78
2023-02-26T06:16:08.820Z,101488.31
2023-02-26T06:18:37.116Z,101480.78
2023-02-26T06:21:06.808Z,101500.22
2023-02-26T06:23:34.743Z,101505.47
2023-02-26T06:26:02.709Z,101506.47
2023-02-26T06:28:30.592Z,101508.75
2023-02-26T06:30:58.587Z,101514.84
2023-02-26T06:33:26.500Z,101521.94
2023-02-26T06:35:54.377Z,101516.50
2023-02-26T06:38:24.005Z,101512.94
2023-02-26T06:40:52.181Z,101528.22
2023-02-26T06:43:20.060Z,101526.53
2023-02-26T06:45:48.109Z,101526.34
2023-02-26T06:48:16.354Z,101534.47
2023-02-26T06:50:44.308Z,101537.38
2023-02-26T06:53:12.188Z,101546.38
2023-02-26T06:55:45.529Z,101547.22
2023-02-26T06:58:13.428Z,101552.63
2023-02-26T07:00:41.593Z,101556.38
2023-02-26T07:03:10.998Z,101561.81
2023-02-26T07:05:38.872Z,101568.09
2023-02-26T07:08:07.016Z,101582.50
2023-02-26T07:10:35.229Z,101590.66
2023-02-26T07:13:04.481Z,101593.38
2023-02-26T07:15:32.604Z,101593.38
2023-02-26T07:18:01.048Z,101605.06
2023-02-26T07:20:29.539Z,101612.38
2023-02-26T07:22:57.572Z,101621.34
2023-02-26T07:25:25.636Z,101621.34
2023-02-26T07:27:54.659Z,101630.53
2023-02-26T07:30:23.993Z,101633.06
2023-02-26T07:32:51.953Z,101641.38
2023-02-26T07:35:20.034Z,101645.78
2023-02-26T07:37:47.916Z,101644.94
2023-02-26T07:40:16.262Z,101651.22
2023-02-26T07:42:44.104Z,101649.34
2023-02-26T07:45:12.377Z,101653.94
2023-02-26T07:47:41.765Z,101657.50
2023-02-26T07:50:11.844Z,101652.91
2023-02-26T07:52:39.702Z,101660.88
2023-02-26T07:55:08.296Z,101661.72
2023-02-26T07:57:36.270Z,101665.47
2023-02-26T08:00:09.724Z,101669.03
2023-02-26T08:02:37.816Z,101680.06
2023-02-26T08:05:07.355Z,101671.06
2023-02-26T08:07:35.284Z,101678.19
2023-02-26T08:10:03.437Z,101679.88
2023-02-26T08:12:31.410Z,101680.91
2023-02-26T08:14:59.296Z,101680.91
2023-02-26T08:17:27.352Z,101691.78
2023-02-26T08:19:55.555Z,101691.78
2023-02-26T08:22:25.030Z,101683.81
2023-02-26T08:24:52.946Z,101687.38
2023-02-26T08:27:20.862Z,101692.78
2023-02-26T08:29:50.331Z,101689.22
2023-02-26T08:32:19.790Z,101696.34
2023-02-26T08:34:47.909Z,101694.66
2023-02-26T08:37:16.050Z,101687.38
2023-02-26T08:39:45.638Z,101690.94
2023-02-26T08:42:16.344Z,101695.50
2023-02-26T08:44:44.241Z,101700.09
2023-02-26T08:47:13.610Z,101699.06
2023-02-26T08:49:43.214Z,101705.34
2023-02-26T08:52:11.123Z,101710.78
2023-02-26T08:54:39.074Z,101708.06
2023-02-26T08:57:08.300Z,101718.91
2023-02-26T08:59:36.473Z,101729.78
2023-02-26T09:02:04.429Z,101727.91
2023-02-26T09:04:32.369Z,101738.78
2023-02-26T09:07:00.268Z,101744.19
2023-02-26T09:09:28.441Z,101751.50
2023-02-26T09:11:56.294Z,101755.06
2023-02-26T09:14:25.565Z,101750.47
2023-02-26T09:16:53.477Z,101750.47
2023-02-26T09:19:21.734Z,101753.19
2023-02-26T09:21:49.635Z,101760.31
2023-02-26T09:24:17.561Z,101756.75
2023-02-26T09:26:45.504Z,101760.50
2023-02-26T09:29:14.482Z,101766.78
2023-02-26T09:31:44.042Z,101767.63
2023-02-26T09:34:12.617Z,101770.34
2023-02-26T09:36:40.523Z,101771.34
2023-02-26T09:39:09.806Z,101777.63
2023-02-26T09:41:39.745Z,101763.56
2023-02-26T09:44:19.306Z,101776.59
2023-02-26T09:46:52.344Z,101768.94
2023-02-26T09:49:28.427Z,101792.22
2023-02-26T09:51:59.442Z,101793.94
2023-02-26T09:54:30.101Z,101788.50
2023-02-26T09:57:00.252Z,101796.63
2023-02-26T09:59:28.949Z,101802.06
2023-02-26T10:02:01.024Z,101801.22
2023-02-26T10:04:41.220Z,101790.94
2023-02-26T10:07:15.723Z,101800.19
2023-02-26T10:10:02.680Z,101793.94
2023-02-26T10:12:32.341Z,101808.34
2023-02-26T10:15:01.376Z,101799.09
2023-02-26T10:17:34.899Z,101815.44
2023-02-26T10:20:04.513Z,101813.78
2023-02-26T10:22:34.698Z,101813.56
2023-02-26T10:25:04.500Z,101821.72
2023-02-26T10:27:44.162Z,101791.59
2023-02-26T10:30:15.720Z,101829.00
2023-02-26T10:32:50.922Z,101829.69
2023-02-26T10:35:19.583Z,101825.28
2023-02-26T10:37:49.770Z,101822.56
2023-02-26T10:40:19.320Z,101829.69
2023-02-26T10:42:49.687Z,101832.41
2023-02-26T10:45:38.704Z,101823.13
2023-02-26T10:48:24.924Z,101835.94
2023-02-26T10:50:53.763Z,101843.25
2023-02-26T10:53:21.944Z,101843.25
2023-02-26T10:55:51.500Z,101843.25
2023-02-26T10:58:24.183Z,101845.97
2023-02-26T11:00:54.202Z,101842.59
2023-02-26T11:03:26.189Z,101845.13
2023-02-26T11:05:54.110Z,101848.69
2023-02-26T11:08:25.172Z,101849.53
2023-02-26T11:10:54.252Z,101845.13
2023-02-26T11:13:22.719Z,101851.41
2023-02-26T11:15:52.231Z,101832.22
2023-02-26T11:18:23.135Z,101845.13
2023-02-26T11:20:53.760Z,101848.88
2023-02-26T11:23:22.459Z,101842.97
2023-02-26T11:25:54.645Z,101857.69
2023-02-26T11:28:24.286Z,101855.81
2023-02-26T11:30:54.338Z,101863.78
2023-02-26T11:33:25.975Z,101859.38
2023-02-26T11:36:00.371Z,101861.25
2023-02-26T11:38:28.577Z,101860.41
2023-02-26T11:40:57.765Z,101852.91
2023-02-26T11:43:28.388Z,101859.38
2023-02-26T11:45:57.288Z,101854.13
2023-02-26T11:48:26.578Z,101857.69
2023-02-26T11:50:58.215Z,101861.06
2023-02-26T11:53:28.317Z,101857.50
2023-02-26T11:56:00.934Z,101856.44
2023-02-26T11:58:30.954Z,101840.72
2023-02-26T12:00:59.852Z,101853.72
2023-02-26T12:03:29.298Z,101853.72
2023-02-26T12:05:58.565Z,101852.06
2023-02-26T12:08:29.285Z,101845.59
2023-02-26T12:11:06.454Z,101835.56
2023-02-26T12:13:36.645Z,101844.09
2023-02-26T12:16:07.337Z,101834.09
2023-02-26T12:18:53.681Z,101837.44
2023-02-26T12:21:33.347Z,101833.69
2023-02-26T12:24:42.849Z,101834.72
2023-02-26T12:27:15.265Z,101840.16
2023-02-26T12:29:51.845Z,101819.22
2023-02-26T12:32:40.975Z,101824.69
2023-02-26T12:35:33.693Z,101833.69
2023-02-26T12:38:09.791Z,101823.84
2023-02-26T12:40:48.460Z,101824.69
2023-02-26T12:43:19.676Z,101828.09
2023-02-26T12:45:53.851Z,101831.66
2023-02-26T12:48:43.606Z,101831.47
2023-02-26T12:51:16.693Z,101823.50
2023-02-26T12:54:01.206Z,101826.22
2023-02-26T12:57:03.044Z,101830.13
2023-02-26T12:59:41.575Z,101835.56
2023-02-26T13:02:51.363Z,101839.34
2023-02-26T13:05:25.294Z,101827.63
2023-02-26T13:08:10.766Z,101831.19
2023-02-26T13:10:46.321Z,101832.84
2023-02-26T13:13:29.298Z,101835.56
2023-02-26T13:16:07.613Z,101835.56
2023-02-26T13:18:42.221Z,101837.44
2023-02-26T13:21:12.429Z,101825.66
2023-02-26T13:23:43.887Z,101845.59
2023-02-26T13:26:13.128Z,101840.16
2023-02-26T13:28:43.623Z,101846.44
2023-02-26T13:31:13.758Z,101839.13
2023-02-26T13:33:41.723Z,101835.38
2023-02-26T13:36:09.862Z,101837.25
2023-02-26T13:38:43.453Z,101830.78
2023-02-26T13:41:15.980Z,101834.53
2023-02-26T13:43:59.356Z,101832.66
2023-02-26T13:46:43.926Z,101830.13
2023-02-26T13:49:15.671Z,101826.56
2023-02-26T13:51:45.612Z,101816.09
2023-02-26T13:54:35.293Z,101832.84
2023-02-26T13:57:26.289Z,101826.97
2023-02-26T13:59:55.986Z,101826.56
2023-02-26T14:02:52.116Z,101833.69
2023-02-26T14:05:31.608Z,101838.28
2023-02-26T14:08:19.320Z,101839.13
2023-02-26T14:10:48.037Z,101839.13
2023-02-26T14:13:19.389Z,101844.56
2023-02-26T14:15:51.460Z,101840.16
2023-02-26T14:18:28.689Z,101835.38
2023-02-26T14:21:28.222Z,101832.50
2023-02-26T14:23:57.814Z,101759.41
2023-02-26T14:26:26.578Z,101786.91
2023-02-26T14:29:08.140Z,101839.78
2023-02-26T14:31:51.907Z,101842.69
2023-02-26T14:34:23.114Z,101852.53
2023-02-26T14:36:52.872Z,101839.97
2023-02-26T14:39:30.380Z,101846.25
2023-02-26T14:42:01.388Z,101848.97
2023-02-26T14:44:32.145Z,101840.81
2023-02-26T14:47:00.412Z,101841.00
2023-02-26T14:49:32.151Z,101774.88
2023-02-26T14:52:11.321Z,101852.53
2023-02-26T14:54:50.335Z,101842.50
2023-02-26T14:57:22.999Z,101853.38
2023-02-26T15:00:19.066Z,101848.97
2023-02-26T15:03:01.915Z,101838.28
2023-02-26T15:05:43.429Z,101855.25
2023-02-26T15:08:21.623Z,101845.22
2023-02-26T15:11:07.366Z,101839.97
2023-02-26T15:13:43.391Z,101847.09
2023-02-26T15:16:19.926Z,101849.81
2023-02-26T15:19:10.897Z,101850.66
2023-02-26T15:21:44.741Z,101828.19
2023-02-26T15:24:14.446Z,101853.38
2023-02-26T15:26:48.051Z,101845.22
2023-02-26T15:29:16.039Z,101851.41
2023-02-26T15:31:46.345Z,101866.09
2023-02-26T15:34:15.113Z,101864.06
2023-02-26T15:36:45.372Z,101865.09
2023-02-26T15:39:15.925Z,101865.91
2023-02-26T15:41:45.324Z,101863.22
2023-02-26T15:44:16.547Z,101866.94
2023-02-26T15:46:47.172Z,101860.50
2023-02-26T15:49:19.108Z,101872.19
2023-02-26T15:51:47.290Z,101865.91
2023-02-26T15:54:17.609Z,101867.31
2023-02-26T15:56:45.559Z,101877.63
2023-02-26T15:59:17.237Z,101878.66
2023-02-26T16:01:46.650Z,101889.53
2023-02-26T16:04:19.031Z,101882.22
2023-02-26T16:06:48.359Z,101889.31
2023-02-26T16:09:18.170Z,101885.59
2023-02-26T16:11:46.107Z,101884.59
2023-02-26T16:14:16.994Z,101886.28
2023-02-26T16:16:47.565Z,101897.13
2023-02-26T16:19:15.920Z,101895.44
2023-02-26T16:21:43.797Z,101892.72
2023-02-26T16:24:14.962Z,101892.72
2023-02-26T16:26:44.167Z,101888.31
2023-02-26T16:29:14.258Z,101891.22
2023-02-26T16:31:42.518Z,101903.59
2023-02-26T16:34:25.469Z,101904.63
2023-02-26T16:36:54.464Z,101902.88
2023-02-26T16:39:24.367Z,101904.78
2023-02-26T16:42:03.467Z,101915.47
2023-02-26T16:44:53.362Z,101918.38
2023-02-26T16:47:21.905Z,101929.06
2023-02-26T16:49:51.708Z,101924.63
2023-02-26T16:52:21.050Z,101934.66
2023-02-26T16:54:56.854Z,101945.53
2023-02-26T16:57:27.553Z,101938.41
2023-02-26T16:59:57.217Z,101940.28
2023-02-26T17:02:26.196Z,101933.03
2023-02-26T17:04:56.152Z,101934.28
2023-02-26T17:07:29.228Z,101938.59
2023-02-26T17:09:58.752Z,101951.31
2023-02-26T17:12:31.988Z,101958.81
2023-02-26T17:15:02.002Z,101964.44
2023-02-26T17:17:30.202Z,101960.69
2023-02-26T17:19:59.787Z,101969.69
2023-02-26T17:22:29.025Z,101970.72
2023-02-26T17:24:56.987Z,101969.88
2023-02-26T17:27:28.255Z,101965.47
2023-02-26T17:29:56.215Z,101971.72
2023-02-26T17:32:26.700Z,101969.88
2023-02-26T17:34:54.783Z,101974.44
2023-02-26T17:37:24.143Z,101979.88
2023-02-26T17:39:52.410Z,101987.00
2023-02-26T17:42:21.408Z,101984.28
2023-02-26T17:44:51.195Z,101988.88
2023-02-26T17:47:20.562Z,101993.28
2023-02-26T17:49:48.897Z,101994.13
2023-02-26T17:52:17.287Z,101998.50
2023-02-26T17:54:46.539Z,101996.63
2023-02-26T17:57:17.066Z,101999.34
2023-02-26T17:59:46.183Z,102002.06
2023-02-26T18:02:17.086Z,102002.06
2023-02-26T18:04:45.351Z,102007.50
2023-02-26T18:07:16.322Z,101996.63
2023-02-26T18:09:46.504Z,102008.34
2023-02-26T18:12:14.816Z,102005.63
2023-02-26T18:14:43.063Z,102000.19
2023-02-26T18:17:12.886Z,102011.06
2023-02-26T18:19:41.395Z,102008.53
2023-02-26T18:22:12.480Z,102013.13
2023-02-26T18:24:41.370Z,102009.59
2023-02-26T18:27:13.744Z,102004.31
2023-02-26T18:29:41.660Z,102008.53
2023-02-26T18:32:13.404Z,102010.44
2023-02-26T18:34:41.423Z,102007.88
2023-02-26T18:37:11.368Z,102006.19
2023-02-26T18:39:39.304Z,102008.06
2023-02-26T18:42:07.276Z,102013.31
2023-02-26T18:44:37.911Z,102010.78
2023-02-26T18:47:06.264Z,102018.75
2023-02-26T18:49:34.463Z,102015.19
2023-02-26T18:52:02.605Z,102023.34
2023-02-26T18:54:30.861Z,102023.34
2023-02-26T18:56:58.788Z,102030.63
2023-02-26T18:59:27.044Z,102027.91
2023-02-26T19:01:56.415Z,102034.19
2023-02-26T19:04:24.472Z,102034.19
2023-02-26T19:06:52.372Z,102033.53
2023-02-26T19:09:21.261Z,102035.22
2023-02-26T19:11:51.523Z,102038.78
2023-02-26T19:14:19.471Z,102041.66
2023-02-26T19:16:47.401Z,102048.78
2023-02-26T19:19:20.215Z,102049.81
2023-02-26T19:21:48.216Z,102056.09
2023-02-26T19:24:16.248Z,102059.66
2023-02-26T19:26:44.316Z,102058.81
2023-02-26T19:29:14.628Z,101982.69
2023-02-26T19:31:42.790Z,102058.63
2023-02-26T19:34:11.204Z,102060.50
2023-02-26T19:36:43.452Z,102062.38
2023-02-26T19:39:12.781Z,102066.78
2023-02-26T19:41:40.702Z,102071.38
2023-02-26T19:44:08.637Z,102066.97
2023-02-26T19:46:37.085Z,102070.53
2023-02-26T19:49:05.251Z,102077.66
2023-02-26T19:51:33.319Z,102082.22
2023-02-26T19:54:02.600Z,102086.81
2023-02-26T19:56:30.637Z,102088.50
2023-02-26T19:58:58.896Z,102094.78
2023-02-26T20:01:27.212Z,102091.22
2023-02-26T20:03:55.516Z,102098.53
2023-02-26T20:06:23.491Z,102096.84
2023-02-26T20:08:52.520Z,102098.06
2023-02-26T20:11:21.930Z,102111.25
2023-02-26T20:13:49.841Z,102103.97
2023-02-26T20:16:17.800Z,102110.41
2023-02-26T20:18:46.715Z,102111.25
2023-02-26T20:21:14.702Z,102101.41
2023-02-26T20:23:42.654Z,102113.97
2023-02-26T20:26:11.931Z,102112.28
2023-02-26T20:28:42.341Z,102117.72
2023-02-26T20:31:10.422Z,102121.28
2023-02-26T20:33:39.454Z,102124.00
2023-02-26T20:36:08.570Z,102120.44
2023-02-26T20:38:36.775Z,102125.00
2023-02-26T20:41:04.958Z,102129.63
2023-02-26T20:43:32.904Z,102126.69
2023-02-26T20:46:02.276Z,102125.00
2023-02-26T20:48:31.141Z,102134.00
2023-02-26T20:51:02.207Z,102127.72
2023-02-26T20:53:30.126Z,102135.22
2023-02-26T20:55:58.028Z,102139.44
2023-02-26T20:58:26.409Z,102135.88
2023-02-26T21:00:56.483Z,102142.34
2023-02-26T21:03:25.933Z,102136.94
2023-02-26T21:05:54.202Z,102143.19
2023-02-26T21:08:22.575Z,102142.16
2023-02-26T21:10:51.353Z,102142.16
2023-02-26T21:13:19.316Z,102145.72
2023-02-26T21:15:47.281Z,102144.88
2023-02-26T21:18:16.133Z,102148.63
2023-02-26T21:20:45.770Z,102148.63
2023-02-26T21:23:13.715Z,102144.22
2023-02-26T21:25:41.933Z,102153.22
2023-02-26T21:28:10.137Z,102152.38
2023-02-26T21:30:38.053Z,102158.44
2023-02-26T21:33:07.056Z,102157.59
2023-02-26T21:35:35.242Z,102152.16
2023-02-26T21:38:04.509Z,102150.50
2023-02-26T21:40:32.723Z,102147.97
2023-02-26T21:43:00.648Z,102155.94
2023-02-26T21:45:28.705Z,102148.63
2023-02-26T21:47:56.633Z,102155.94
2023-02-26T21:50:24.866Z,102151.53
2023-02-26T21:52:52.749Z,102152.38
2023-02-26T21:55:22.010Z,102152.38
2023-02-26T21:57:49.891Z,102149.66
2023-02-26T22:00:19.369Z,102154.06
2023-02-26T22:02:47.357Z,102145.06
2023-02-26T22:05:15.408Z,102142.69
2023-02-26T22:07:44.436Z,102152.16
2023-02-26T22:10:13.491Z,102152.38
2023-02-26T22:12:42.833Z,102147.09
2023-02-26T22:15:10.963Z,102142.34
2023-02-26T22:17:38.917Z,102154.06
2023-02-26T22:20:09.846Z,102143.72
2023-02-26T22:22:38.094Z,102149.16
2023-02-26T22:25:06.429Z,102147.97
2023-02-26T22:27:34.479Z,102154.22
2023-02-26T22:30:04.168Z,102148.81
2023-02-26T22:32:32.115Z,102151.53
2023-02-26T22:35:00.061Z,102143.72
2023-02-26T22:37:27.952Z,102146.94
2023-02-26T22:39:56.685Z,102149.66
2023-02-26T22:42:24.645Z,102155.09
2023-02-26T22:44:52.592Z,102148.81
2023-02-26T22:47:21.892Z,102151.34
2023-02-26T22:49:50.258Z,102158.66
2023-02-26T22:52:18.156Z,102159.50
2023-02-26T22:54:46.610Z,102155.25
2023-02-26T22:57:14.802Z,102165.75
2023-02-26T22:59:43.034Z,102159.50
2023-02-26T23:02:10.901Z,102162.38
2023-02-26T23:04:40.675Z,102164.06
2023-02-26T23:07:08.691Z,102165.09
2023-02-26T23:09:37.246Z,102161.53
2023-02-26T23:12:05.583Z,102163.41
2023-02-26T23:14:33.499Z,102166.97
2023-02-26T23:17:01.398Z,102165.28
2023-02-26T23:19:29.686Z,102170.69
2023-02-26T23:21:59.031Z,102174.25
2023-02-26T23:24:27.307Z,102160.22
2023-02-26T23:26:55.220Z,102176.31
2023-02-26T23:29:23.225Z,102170.88
2023-02-26T23:31:51.371Z,102180.72
2023-02-26T23:34:19.340Z,102179.00
2023-02-26T23:36:47.245Z,102176.31
2023-02-26T23:39:16.806Z,102181.72
2023-02-26T23:41:44.718Z,102177.34
2023-02-26T23:44:12.614Z,102181.09
2023-02-26T23:46:40.545Z,102178.38
2023-02-26T23:49:09.599Z,102180.25
2023-02-26T23:51:38.373Z,102183.81
2023-02-26T23:54:06.390Z,102182.28
2023-02-26T23:56:36.730Z,102182.09
2023-02-26T23:59:05.259Z,102191.09
